Time;durP1;ratioP1;P1;durP2;ratioP2;P2;SDS_P1;SDS_P2;PMS_P1;PMS_P2;Temp;Humidity;BMP_temperature;BMP_pressure;BME280_temperature;BME280_humidity;BME280_pressure;Samples;Min_cycle;Max_cycle;Signal;HPM_P1;HPM_P2
2021/12/16 00:02:19;;;;;;;11.30;6.67;;;;;;;;;;6229737;28;20220;-64
2021/12/16 00:06:02;;;;;;;8.10;6.07;;;;;;;;;;6229665;28;20624;-65
2021/12/16 00:09:28;;;;;;;9.80;6.37;;;;;;;;;;6221977;28;20236;-65
2021/12/16 00:31:25;;;;;;;9.10;6.13;;;;;;;;;;6236335;28;20236;-64
2021/12/16 00:34:49;;;;;;;9.67;7.87;;;;;;;;;;6214725;28;20224;-64
2021/12/16 00:38:13;;;;;;;8.13;6.60;;;;;;;;;;6241449;28;20359;-64
2021/12/16 00:41:35;;;;;;;6.80;5.97;;;;;;;;;;6235834;28;20224;-64
2021/12/16 00:45:19;;;;;;;13.53;7.53;;;;;;;;;;6234747;28;20606;-65
2021/12/16 00:49:04;;;;;;;10.30;6.53;;;;;;;;;;6213294;28;20268;-64
2021/12/16 00:56:05;;;;;;;13.40;7.97;;;;;;;;;;6226422;28;20252;-65
2021/12/16 00:59:34;;;;;;;13.97;7.27;;;;;;;;;;6235168;28;20252;-65
2021/12/16 01:03:08;;;;;;;11.93;9.57;;;;;;;;;;6202899;28;20256;-64
2021/12/16 01:06:51;;;;;;;12.90;8.30;;;;;;;;;;6233216;28;20220;-65
2021/12/16 01:36:39;;;;;;;13.97;10.63;;;;;;;;;;6233507;28;20225;-65
2021/12/16 01:40:15;;;;;;;12.93;10.83;;;;;;;;;;6214518;28;20229;-65
2021/12/16 01:47:40;;;;;;;15.80;11.03;;;;;;;;;;6234118;28;20228;-64
2021/12/16 01:51:14;;;;;;;16.67;11.77;;;;;;;;;;6212363;28;20228;-64
2021/12/16 01:54:48;;;;;;;14.70;12.30;;;;;;;;;;6244340;28;20665;-65
2021/12/16 01:58:13;;;;;;;19.17;13.03;;;;;;;;;;6202479;28;20228;-65
2021/12/16 02:01:37;;;;;;;19.40;13.87;;;;;;;;;;6231223;28;20626;-64
2021/12/16 02:05:22;;;;;;;26.10;16.93;;;;;;;;;;6208427;28;20227;-66
2021/12/16 02:08:43;;;;;;;16.13;12.37;;;;;;;;;;6213195;28;20513;-64
2021/12/16 02:12:14;;;;;;;21.20;14.47;;;;;;;;;;6229616;28;20248;-64
2021/12/16 02:31:13;;;;;;;19.83;14.27;;;;;;;;;;6208505;28;20240;-65
2021/12/16 02:34:42;;;;;;;19.80;14.67;;;;;;;;;;6225682;28;20264;-65
2021/12/16 02:38:05;;;;;;;23.40;18.27;;;;;;;;;;6229243;28;20228;-64
2021/12/16 02:41:28;;;;;;;22.73;15.73;;;;;;;;;;6215505;28;20224;-64
2021/12/16 02:48:33;;;;;;;22.97;17.23;;;;;;;;;;6225392;28;20252;-64
2021/12/16 02:51:56;;;;;;;26.40;18.60;;;;;;;;;;6205547;28;20228;-65
2021/12/16 02:55:20;;;;;;;27.67;19.67;;;;;;;;;;6214378;28;20240;-64
2021/12/16 02:58:45;;;;;;;26.60;18.40;;;;;;;;;;6235722;28;20244;-64
2021/12/16 03:02:10;;;;;;;32.10;19.07;;;;;;;;;;6235162;28;20239;-65
2021/12/16 03:05:35;;;;;;;27.97;19.50;;;;;;;;;;6199765;28;20235;-64
2021/12/16 03:08:56;;;;;;;26.30;19.07;;;;;;;;;;6238014;28;20224;-64
2021/12/16 03:12:44;;;;;;;27.17;19.00;;;;;;;;;;6213376;28;20220;-64
2021/12/16 03:16:22;;;;;;;25.60;19.50;;;;;;;;;;6229768;28;20256;-65
2021/12/16 03:19:56;;;;;;;27.57;18.43;;;;;;;;;;6214715;28;20236;-64
2021/12/16 03:23:34;;;;;;;30.87;18.13;;;;;;;;;;6240573;28;20529;-64
2021/12/16 03:31:01;;;;;;;33.77;22.10;;;;;;;;;;6243087;28;20315;-65
2021/12/16 03:34:45;;;;;;;32.70;22.73;;;;;;;;;;6207912;28;20225;-64
2021/12/16 03:38:08;;;;;;;28.80;20.57;;;;;;;;;;6247250;28;20237;-64
2021/12/16 03:41:29;;;;;;;30.40;22.07;;;;;;;;;;6218246;28;20221;-65
2021/12/16 03:44:57;;;;;;;30.37;19.83;;;;;;;;;;6232656;28;20232;-66
2021/12/16 03:48:24;;;;;;;32.13;22.93;;;;;;;;;;6223715;28;20307;-65
2021/12/16 03:51:51;;;;;;;29.90;21.27;;;;;;;;;;6212796;28;20492;-65
2021/12/16 03:55:12;;;;;;;28.77;23.33;;;;;;;;;;6243177;28;20285;-65
2021/12/16 03:58:34;;;;;;;32.93;21.30;;;;;;;;;;6225601;28;20519;-63
2021/12/16 04:01:57;;;;;;;37.60;23.83;;;;;;;;;;6189110;28;20228;-64
2021/12/16 04:05:30;;;;;;;36.33;25.80;;;;;;;;;;6213315;28;20232;-65
2021/12/16 04:08:57;;;;;;;34.17;21.73;;;;;;;;;;6227481;28;20228;-65
2021/12/16 04:12:21;;;;;;;32.63;24.50;;;;;;;;;;6237388;28;20237;-65
2021/12/16 04:15:43;;;;;;;31.57;24.87;;;;;;;;;;6217051;28;20552;-65
2021/12/16 04:19:07;;;;;;;44.00;27.40;;;;;;;;;;6226781;28;20240;-64
2021/12/16 04:22:42;;;;;;;32.63;24.10;;;;;;;;;;6211054;28;20225;-64
2021/12/16 04:26:04;;;;;;;34.13;25.03;;;;;;;;;;6240451;28;20228;-66
2021/12/16 04:29:26;;;;;;;40.83;28.30;;;;;;;;;;6199846;28;20228;-64
2021/12/16 04:32:47;;;;;;;41.33;26.43;;;;;;;;;;6228178;28;20229;-64
2021/12/16 04:36:10;;;;;;;40.30;26.07;;;;;;;;;;6215975;28;20236;-63
2021/12/16 04:39:35;;;;;;;39.17;26.73;;;;;;;;;;6226430;28;20229;-64
2021/12/16 04:43:00;;;;;;;43.40;26.80;;;;;;;;;;6229614;28;20231;-64
2021/12/16 04:46:26;;;;;;;34.17;26.87;;;;;;;;;;6225037;28;20232;-64
2021/12/16 04:49:47;;;;;;;39.50;26.87;;;;;;;;;;6240370;28;20228;-64
2021/12/16 04:53:09;;;;;;;43.70;28.30;;;;;;;;;;6227120;28;20233;-65
2021/12/16 04:56:35;;;;;;;38.00;25.20;;;;;;;;;;6221918;28;20887;-64
2021/12/16 04:59:59;;;;;;;31.77;24.97;;;;;;;;;;6217132;28;20232;-64
2021/12/16 05:03:33;;;;;;;43.33;28.60;;;;;;;;;;6238267;28;20228;-64
2021/12/16 05:06:56;;;;;;;42.10;27.23;;;;;;;;;;6207987;28;20232;-64
2021/12/16 05:10:18;;;;;;;46.53;32.93;;;;;;;;;;6240988;28;20229;-64
2021/12/16 05:13:47;;;;;;;44.73;28.70;;;;;;;;;;6233087;28;20322;-63
2021/12/16 05:17:22;;;;;;;41.93;28.73;;;;;;;;;;6227229;28;20260;-64
2021/12/16 05:20:45;;;;;;;40.07;27.57;;;;;;;;;;6244380;28;20744;-64
2021/12/16 05:24:16;;;;;;;50.60;28.50;;;;;;;;;;6234857;28;20229;-64
2021/12/16 05:27:37;;;;;;;43.27;26.80;;;;;;;;;;6223277;28;20235;-65
2021/12/16 05:31:00;;;;;;;36.17;25.73;;;;;;;;;;6237658;28;20505;-65
2021/12/16 05:34:23;;;;;;;36.07;27.43;;;;;;;;;;6236103;28;20235;-63
2021/12/16 05:37:45;;;;;;;43.83;30.97;;;;;;;;;;6224258;28;20679;-64
2021/12/16 05:41:10;;;;;;;36.67;27.50;;;;;;;;;;6235102;28;20237;-64
2021/12/16 05:44:32;;;;;;;36.77;25.23;;;;;;;;;;6230895;28;20237;-65
2021/12/16 05:47:57;;;;;;;38.77;27.70;;;;;;;;;;6240471;28;20236;-64
2021/12/16 05:51:22;;;;;;;38.60;26.77;;;;;;;;;;6237532;28;20247;-64
2021/12/16 05:54:43;;;;;;;31.27;21.73;;;;;;;;;;6224265;28;20252;-64
2021/12/16 05:58:17;;;;;;;28.27;22.50;;;;;;;;;;6224598;28;20223;-63
2021/12/16 06:01:40;;;;;;;37.67;22.03;;;;;;;;;;6227339;28;20232;-63
2021/12/16 06:05:02;;;;;;;38.00;25.20;;;;;;;;;;6238462;28;20330;-64
2021/12/16 06:08:24;;;;;;;37.50;22.90;;;;;;;;;;6239973;28;20710;-65
2021/12/16 06:11:47;;;;;;;35.90;24.63;;;;;;;;;;6223370;28;20594;-65
2021/12/16 06:15:20;;;;;;;34.33;22.57;;;;;;;;;;6238561;28;20223;-65
2021/12/16 06:22:32;;;;;;;28.70;20.70;;;;;;;;;;6233696;28;20890;-64
2021/12/16 06:29:31;;;;;;;23.40;20.20;;;;;;;;;;6229215;28;20225;-64
2021/12/16 06:32:52;;;;;;;32.63;22.20;;;;;;;;;;6235309;28;20236;-65
2021/12/16 06:36:12;;;;;;;33.13;20.53;;;;;;;;;;6234447;28;20284;-65
2021/12/16 06:39:35;;;;;;;28.13;18.87;;;;;;;;;;6226430;28;20780;-65
2021/12/16 06:43:23;;;;;;;27.27;18.30;;;;;;;;;;6227237;28;20252;-63
2021/12/16 06:46:46;;;;;;;31.63;19.23;;;;;;;;;;6221068;28;20516;-62
2021/12/16 06:50:08;;;;;;;27.47;17.50;;;;;;;;;;6229369;28;20251;-65
2021/12/16 06:53:33;;;;;;;26.93;18.43;;;;;;;;;;6215472;28;20228;-64
2021/12/16 06:57:05;;;;;;;21.93;15.83;;;;;;;;;;6228599;28;20240;-66
2021/12/16 07:00:33;;;;;;;24.00;16.93;;;;;;;;;;6234338;28;20746;-64
2021/12/16 07:03:54;;;;;;;25.13;19.07;;;;;;;;;;6234863;28;20235;-64
2021/12/16 07:07:16;;;;;;;25.77;17.57;;;;;;;;;;6239073;28;20610;-63
2021/12/16 07:10:37;;;;;;;26.70;18.93;;;;;;;;;;6238180;28;20228;-62
2021/12/16 07:14:01;;;;;;;21.93;12.93;;;;;;;;;;6229042;28;20248;-62
2021/12/16 07:17:22;;;;;;;15.67;12.60;;;;;;;;;;6230045;28;20232;-61
2021/12/16 07:20:43;;;;;;;16.47;12.10;;;;;;;;;;6230939;28;20249;-65
2021/12/16 07:24:05;;;;;;;15.83;11.30;;;;;;;;;;6233032;28;20823;-63
2021/12/16 07:27:26;;;;;;;16.13;13.10;;;;;;;;;;6233248;28;20537;-63
2021/12/16 07:30:48;;;;;;;14.90;11.67;;;;;;;;;;6232887;28;20236;-62
2021/12/16 07:34:10;;;;;;;19.57;13.70;;;;;;;;;;6239062;28;20236;-66
2021/12/16 07:37:31;;;;;;;19.17;12.53;;;;;;;;;;6201358;28;1072500;-65
2021/12/16 07:40:53;;;;;;;18.33;12.83;;;;;;;;;;6232865;28;20307;-63
2021/12/16 07:44:16;;;;;;;14.83;10.93;;;;;;;;;;6240022;28;20319;-65
2021/12/16 07:47:38;;;;;;;16.60;11.43;;;;;;;;;;6227669;28;20594;-63
2021/12/16 07:51:02;;;;;;;20.43;13.67;;;;;;;;;;6231674;28;20319;-64
2021/12/16 07:54:23;;;;;;;14.33;12.17;;;;;;;;;;6236380;28;20225;-63
2021/12/16 07:57:44;;;;;;;15.53;10.37;;;;;;;;;;6240472;28;20557;-64
2021/12/16 08:01:05;;;;;;;23.30;13.95;;;;;;;;;;6232507;28;20750;-63
2021/12/16 08:04:30;;;;;;;16.10;11.67;;;;;;;;;;6239021;28;20236;-63
2021/12/16 08:07:51;;;;;;;18.37;11.67;;;;;;;;;;6243196;28;20282;-63
2021/12/16 08:11:11;;;;;;;20.77;12.77;;;;;;;;;;6234793;28;20256;-63
2021/12/16 08:14:32;;;;;;;13.63;10.07;;;;;;;;;;6244444;28;20263;-63
2021/12/16 08:17:54;;;;;;;15.83;12.00;;;;;;;;;;6239843;28;20236;-63
2021/12/16 08:21:16;;;;;;;17.67;12.17;;;;;;;;;;6229674;28;20602;-64
2021/12/16 08:24:37;;;;;;;12.37;10.97;;;;;;;;;;6239079;28;20232;-63
2021/12/16 08:28:03;;;;;;;13.17;11.37;;;;;;;;;;6240044;28;20236;-60
2021/12/16 08:31:24;;;;;;;14.30;11.73;;;;;;;;;;6233513;28;20233;-60
2021/12/16 08:34:46;;;;;;;12.27;10.73;;;;;;;;;;6236963;28;20220;-63
2021/12/16 08:38:10;;;;;;;14.83;10.03;;;;;;;;;;6234537;28;20221;-63
2021/12/16 08:41:34;;;;;;;12.90;9.13;;;;;;;;;;6209590;28;20252;-62
2021/12/16 08:44:55;;;;;;;11.20;8.43;;;;;;;;;;6232401;28;20841;-63
2021/12/16 08:48:16;;;;;;;11.77;8.97;;;;;;;;;;6232431;28;20248;-61
2021/12/16 08:51:41;;;;;;;12.50;9.00;;;;;;;;;;6235704;28;20240;-64
2021/12/16 08:55:04;;;;;;;10.70;7.47;;;;;;;;;;6240837;28;20233;-63
2021/12/16 08:58:26;;;;;;;11.10;7.20;;;;;;;;;;6238640;28;20229;-63
2021/12/16 09:01:50;;;;;;;10.73;7.67;;;;;;;;;;6229996;28;20240;-63
2021/12/16 09:05:11;;;;;;;8.43;6.23;;;;;;;;;;6237101;28;20237;-64
2021/12/16 09:08:32;;;;;;;8.60;4.57;;;;;;;;;;6211469;28;20224;-63
2021/12/16 09:12:06;;;;;;;7.73;5.90;;;;;;;;;;6235812;28;20232;-64
2021/12/16 09:15:27;;;;;;;8.73;6.33;;;;;;;;;;6238485;28;20248;-63
2021/12/16 09:18:48;;;;;;;7.73;5.17;;;;;;;;;;6240549;28;20698;-64
2021/12/16 09:22:10;;;;;;;6.63;4.30;;;;;;;;;;6231588;28;20264;-64
2021/12/16 09:25:31;;;;;;;6.73;5.23;;;;;;;;;;6236851;28;20330;-64
2021/12/16 09:28:54;;;;;;;9.13;5.60;;;;;;;;;;6243836;28;20229;-64
2021/12/16 09:32:16;;;;;;;7.63;4.83;;;;;;;;;;6228986;28;20224;-64
2021/12/16 09:35:39;;;;;;;12.50;6.80;;;;;;;;;;6233113;28;20307;-63
2021/12/16 09:39:00;;;;;;;6.00;4.60;;;;;;;;;;6230656;28;20219;-63
2021/12/16 09:42:21;;;;;;;7.43;5.77;;;;;;;;;;6233737;28;20319;-64
2021/12/16 09:45:43;;;;;;;6.33;5.43;;;;;;;;;;6232262;28;20232;-63
2021/12/16 09:49:05;;;;;;;12.03;6.07;;;;;;;;;;6229512;28;20252;-63
2021/12/16 09:52:25;;;;;;;5.67;4.90;;;;;;;;;;6235693;28;20248;-63
2021/12/16 09:55:51;;;;;;;6.83;5.07;;;;;;;;;;6237053;28;20468;-64
2021/12/16 09:59:14;;;;;;;9.33;5.53;;;;;;;;;;6226359;28;20225;-63
2021/12/16 10:02:38;;;;;;;9.37;4.90;;;;;;;;;;6205821;28;20228;-63
2021/12/16 10:05:59;;;;;;;5.77;4.67;;;;;;;;;;6238431;28;20494;-63
2021/12/16 10:09:20;;;;;;;5.10;4.43;;;;;;;;;;6236172;28;20236;-65
2021/12/16 10:12:42;;;;;;;8.47;5.07;;;;;;;;;;6234116;28;20669;-63
2021/12/16 10:19:44;;;;;;;7.33;5.43;;;;;;;;;;6229551;28;20626;-62
2021/12/16 10:23:07;;;;;;;6.03;5.07;;;;;;;;;;6250045;28;20236;-61
2021/12/16 10:26:28;;;;;;;9.97;5.27;;;;;;;;;;6238674;28;20246;-60
2021/12/16 10:29:52;;;;;;;5.00;4.33;;;;;;;;;;6233923;28;20236;-61
2021/12/16 10:33:17;;;;;;;7.00;4.67;;;;;;;;;;6235292;28;20232;-61
2021/12/16 10:36:41;;;;;;;6.03;4.03;;;;;;;;;;6235798;28;20228;-61
2021/12/16 10:40:27;;;;;;;6.47;4.57;;;;;;;;;;6247723;28;20232;-61
2021/12/16 10:43:51;;;;;;;6.60;3.87;;;;;;;;;;6236159;28;20240;-61
2021/12/16 10:47:14;;;;;;;9.43;4.43;;;;;;;;;;6236475;28;20236;-61
2021/12/16 10:50:48;;;;;;;5.73;3.63;;;;;;;;;;6234078;28;20232;-61
2021/12/16 10:54:20;;;;;;;8.80;4.00;;;;;;;;;;6234626;28;20618;-63
2021/12/16 10:57:41;;;;;;;7.83;3.03;;;;;;;;;;6236476;28;20232;-62
2021/12/16 11:01:02;;;;;;;9.73;7.20;;;;;;;;;;6232988;28;20224;-62
2021/12/16 11:04:27;;;;;;;14.10;5.17;;;;;;;;;;6236783;28;20653;-64
2021/12/16 11:07:50;;;;;;;9.30;4.83;;;;;;;;;;6234194;28;20236;-62
2021/12/16 11:11:15;;;;;;;7.90;4.53;;;;;;;;;;6232663;28;20225;-63
2021/12/16 11:14:36;;;;;;;9.30;4.80;;;;;;;;;;6229469;28;20237;-64
2021/12/16 11:18:02;;;;;;;14.30;6.57;;;;;;;;;;6229111;28;20241;-63
2021/12/16 11:21:23;;;;;;;10.53;6.20;;;;;;;;;;6235122;28;20717;-63
2021/12/16 11:24:44;;;;;;;6.93;4.87;;;;;;;;;;6232675;28;20228;-63
2021/12/16 11:28:13;;;;;;;8.73;5.20;;;;;;;;;;6230160;28;20233;-63
2021/12/16 11:31:34;;;;;;;6.33;4.37;;;;;;;;;;6230081;28;20228;-63
2021/12/16 11:34:55;;;;;;;10.77;4.60;;;;;;;;;;6239125;28;20225;-61
2021/12/16 11:38:21;;;;;;;13.53;8.23;;;;;;;;;;6241069;28;20220;-63
2021/12/16 11:41:45;;;;;;;7.33;5.40;;;;;;;;;;6237081;28;20228;-64
2021/12/16 11:45:07;;;;;;;13.03;4.90;;;;;;;;;;6245526;28;20224;-63
2021/12/16 11:48:32;;;;;;;12.07;4.93;;;;;;;;;;6234330;28;20584;-64
2021/12/16 11:51:58;;;;;;;8.83;4.07;;;;;;;;;;6243543;28;20536;-63
2021/12/16 11:55:19;;;;;;;9.40;3.70;;;;;;;;;;6229398;28;20241;-64
2021/12/16 11:58:43;;;;;;;6.87;3.10;;;;;;;;;;6241182;28;20240;-62
2021/12/16 12:02:06;;;;;;;6.30;3.73;;;;;;;;;;6244487;28;20225;-64
2021/12/16 12:05:29;;;;;;;6.43;3.10;;;;;;;;;;6235845;28;20236;-63
2021/12/16 12:08:52;;;;;;;11.00;4.40;;;;;;;;;;6241831;28;20240;-64
2021/12/16 12:12:14;;;;;;;10.00;4.67;;;;;;;;;;6226194;28;20285;-63
2021/12/16 12:15:36;;;;;;;7.87;3.97;;;;;;;;;;6233801;28;20224;-64
2021/12/16 12:19:03;;;;;;;8.70;3.83;;;;;;;;;;6235998;28;20807;-63
2021/12/16 12:22:25;;;;;;;4.20;2.67;;;;;;;;;;6239465;28;20228;-64
2021/12/16 12:25:46;;;;;;;10.23;3.70;;;;;;;;;;6238382;28;20237;-63
2021/12/16 12:29:10;;;;;;;9.90;3.27;;;;;;;;;;6241672;28;20596;-63
2021/12/16 12:32:34;;;;;;;12.30;4.40;;;;;;;;;;6236175;28;20221;-64
2021/12/16 12:35:56;;;;;;;11.37;3.57;;;;;;;;;;6232071;28;20252;-63
2021/12/16 12:39:20;;;;;;;9.03;3.50;;;;;;;;;;6241017;28;20228;-63
2021/12/16 12:42:41;;;;;;;10.47;3.10;;;;;;;;;;6228943;28;20228;-64
2021/12/16 12:46:05;;;;;;;11.67;3.07;;;;;;;;;;6228870;28;20266;-63
2021/12/16 12:49:29;;;;;;;8.57;3.00;;;;;;;;;;6228854;28;20240;-64
2021/12/16 12:52:54;;;;;;;11.03;3.47;;;;;;;;;;6232204;28;20259;-64
2021/12/16 12:56:17;;;;;;;7.83;2.80;;;;;;;;;;6224366;28;20341;-64
2021/12/16 12:59:39;;;;;;;6.67;2.43;;;;;;;;;;6227922;28;20239;-64
2021/12/16 13:03:03;;;;;;;7.37;2.50;;;;;;;;;;6237668;28;20509;-64
2021/12/16 13:06:26;;;;;;;15.10;5.30;;;;;;;;;;6224071;28;20228;-63
2021/12/16 13:09:51;;;;;;;8.90;3.33;;;;;;;;;;6236332;28;20229;-65
2021/12/16 13:13:28;;;;;;;8.13;2.70;;;;;;;;;;6238608;28;20228;-65
2021/12/16 13:17:31;;;;;;;14.37;4.90;;;;;;;;;;6238046;28;20221;-62
2021/12/16 13:25:01;;;;;;;10.03;2.93;;;;;;;;;;6235077;28;20232;-64
2021/12/16 13:28:38;;;;;;;11.47;4.00;;;;;;;;;;6238052;28;20232;-64
2021/12/16 13:32:11;;;;;;;6.97;3.50;;;;;;;;;;6236688;28;20240;-64
2021/12/16 13:35:35;;;;;;;7.17;3.63;;;;;;;;;;6239546;28;20228;-65
2021/12/16 13:38:56;;;;;;;8.30;3.33;;;;;;;;;;6240851;28;20236;-64
2021/12/16 13:42:17;;;;;;;8.57;3.43;;;;;;;;;;6234705;28;20229;-63
2021/12/16 13:45:48;;;;;;;9.77;3.13;;;;;;;;;;6239724;28;20335;-64
2021/12/16 14:08:14;;;;;;;14.70;4.27;;;;;;;;;;6146992;28;20243;-61
2021/12/16 14:15:21;;;;;;;15.23;6.33;;;;;;;;;;6235015;28;20553;-63
2021/12/16 14:26:33;;;;;;;13.83;3.87;;;;;;;;;;6233636;28;20251;-61
2021/12/16 14:37:33;;;;;;;10.53;3.80;;;;;;;;;;6238565;28;20235;-63
2021/12/16 14:41:07;;;;;;;10.73;3.03;;;;;;;;;;6222984;28;20233;-62
2021/12/16 14:51:58;;;;;;;11.07;3.73;;;;;;;;;;6197804;28;20225;-64
2021/12/16 14:55:22;;;;;;;10.30;3.93;;;;;;;;;;6241525;28;20649;-64
2021/12/16 14:58:47;;;;;;;6.00;3.30;;;;;;;;;;6240119;28;20232;-62
2021/12/16 15:02:10;;;;;;;14.60;3.80;;;;;;;;;;6225985;28;20240;-63
2021/12/16 15:05:35;;;;;;;10.03;4.00;;;;;;;;;;6232953;28;20224;-63
2021/12/16 15:09:08;;;;;;;6.73;3.10;;;;;;;;;;6234099;28;20515;-63
2021/12/16 15:12:42;;;;;;;9.03;3.80;;;;;;;;;;6231288;28;20217;-63
2021/12/16 15:16:20;;;;;;;11.83;4.90;;;;;;;;;;6230459;28;20217;-62
2021/12/16 15:45:30;;;;;;;14.60;4.53;;;;;;;;;;6240674;28;20610;-63
2021/12/16 15:48:52;;;;;;;8.67;3.23;;;;;;;;;;6238149;28;20630;-62
2021/12/16 15:52:14;;;;;;;8.90;3.50;;;;;;;;;;6235705;28;20236;-62
2021/12/16 15:55:37;;;;;;;9.80;4.30;;;;;;;;;;6241216;28;20319;-63
2021/12/16 15:59:01;;;;;;;11.70;4.40;;;;;;;;;;6240950;28;20783;-63
2021/12/16 16:02:22;;;;;;;7.50;3.03;;;;;;;;;;6235457;28;20582;-64
2021/12/16 16:05:47;;;;;;;9.23;3.93;;;;;;;;;;6238825;28;20232;-63
2021/12/16 16:09:10;;;;;;;8.03;3.07;;;;;;;;;;6239357;28;20228;-64
2021/12/16 16:12:33;;;;;;;6.20;3.57;;;;;;;;;;6234885;28;20650;-64
2021/12/16 16:15:59;;;;;;;7.77;3.30;;;;;;;;;;6238449;28;20224;-64
2021/12/16 16:19:22;;;;;;;9.37;3.07;;;;;;;;;;6244542;28;20225;-63
2021/12/16 16:22:47;;;;;;;9.17;3.33;;;;;;;;;;6240530;28;20229;-63
2021/12/16 16:26:10;;;;;;;15.63;3.87;;;;;;;;;;6234424;28;20225;-63
2021/12/16 16:29:33;;;;;;;7.93;3.43;;;;;;;;;;6238739;28;20236;-63
2021/12/16 16:33:15;;;;;;;7.60;4.30;;;;;;;;;;6238927;28;20325;-64
2021/12/16 16:36:41;;;;;;;9.03;4.40;;;;;;;;;;6209600;28;20237;-64
2021/12/16 16:40:09;;;;;;;14.10;4.90;;;;;;;;;;6242159;28;20233;-64
2021/12/16 16:43:33;;;;;;;8.70;4.73;;;;;;;;;;6239167;28;20594;-64
2021/12/16 16:46:56;;;;;;;11.53;4.50;;;;;;;;;;6239488;28;20236;-63
2021/12/16 16:50:18;;;;;;;9.63;4.03;;;;;;;;;;6241122;28;20232;-64
2021/12/16 16:54:02;;;;;;;11.97;5.33;;;;;;;;;;6229983;28;20249;-64
2021/12/16 16:57:31;;;;;;;9.13;3.93;;;;;;;;;;6233633;28;20280;-64
2021/12/16 17:00:52;;;;;;;6.57;3.67;;;;;;;;;;6233592;28;20254;-63
2021/12/16 17:04:15;;;;;;;12.23;5.00;;;;;;;;;;6239603;28;20244;-64
2021/12/16 17:07:45;;;;;;;7.80;4.03;;;;;;;;;;6227510;28;20225;-64
2021/12/16 17:11:09;;;;;;;15.13;5.20;;;;;;;;;;6234336;28;20318;-63
2021/12/16 17:14:37;;;;;;;6.07;3.87;;;;;;;;;;6240100;28;20300;-64
2021/12/16 17:17:58;;;;;;;9.93;4.67;;;;;;;;;;6237292;28;20227;-65
2021/12/16 17:21:23;;;;;;;9.93;3.93;;;;;;;;;;6229795;28;20691;-64
2021/12/16 17:24:46;;;;;;;9.30;4.80;;;;;;;;;;6231834;28;20653;-64
2021/12/16 17:28:07;;;;;;;11.53;5.23;;;;;;;;;;6240250;28;20244;-63
2021/12/16 17:31:35;;;;;;;8.67;3.40;;;;;;;;;;6239472;28;20594;-64
2021/12/16 17:34:58;;;;;;;7.97;4.60;;;;;;;;;;6231921;28;20265;-63
2021/12/16 17:38:21;;;;;;;10.10;4.57;;;;;;;;;;6237659;28;20228;-63
2021/12/16 17:41:42;;;;;;;8.60;4.23;;;;;;;;;;6237009;28;20602;-63
2021/12/16 17:45:08;;;;;;;11.97;4.80;;;;;;;;;;6235277;28;20228;-64
2021/12/16 17:48:33;;;;;;;7.17;4.97;;;;;;;;;;6239344;28;20495;-64
2021/12/16 17:51:54;;;;;;;7.43;4.47;;;;;;;;;;6228948;28;20232;-63
2021/12/16 17:55:18;;;;;;;12.67;4.87;;;;;;;;;;6236415;28;20540;-63
2021/12/16 17:58:42;;;;;;;8.80;4.70;;;;;;;;;;6236943;28;20225;-64
2021/12/16 18:02:04;;;;;;;11.57;4.63;;;;;;;;;;6232375;28;20236;-65
2021/12/16 18:05:39;;;;;;;7.27;4.50;;;;;;;;;;6232430;28;20582;-63
2021/12/16 18:09:06;;;;;;;9.07;5.00;;;;;;;;;;6231806;28;20232;-64
2021/12/16 18:12:29;;;;;;;9.73;5.27;;;;;;;;;;6231377;28;21148;-64
2021/12/16 18:15:57;;;;;;;10.07;6.13;;;;;;;;;;6232357;28;20811;-64
2021/12/16 18:19:22;;;;;;;10.33;6.33;;;;;;;;;;6233122;28;20526;-65
2021/12/16 18:22:45;;;;;;;12.00;5.97;;;;;;;;;;6236167;28;20525;-64
2021/12/16 18:26:08;;;;;;;9.80;5.23;;;;;;;;;;6234755;28;20256;-66
2021/12/16 18:29:33;;;;;;;8.83;5.50;;;;;;;;;;6232929;28;20634;-63
2021/12/16 18:32:58;;;;;;;14.03;6.27;;;;;;;;;;6235223;28;20252;-63
2021/12/16 18:36:22;;;;;;;15.37;7.33;;;;;;;;;;6234058;28;20243;-62
2021/12/16 18:39:49;;;;;;;11.13;7.00;;;;;;;;;;6234575;28;20236;-64
2021/12/16 18:43:10;;;;;;;9.33;5.17;;;;;;;;;;6237764;28;20533;-64
2021/12/16 18:46:31;;;;;;;11.63;6.73;;;;;;;;;;6233849;28;20220;-64
2021/12/16 18:49:55;;;;;;;9.27;6.03;;;;;;;;;;6230973;28;20236;-65
2021/12/16 18:57:01;;;;;;;10.87;6.57;;;;;;;;;;6246469;28;20235;-64
2021/12/16 19:00:22;;;;;;;8.63;5.67;;;;;;;;;;6240209;28;20528;-64
2021/12/16 19:03:45;;;;;;;14.13;6.60;;;;;;;;;;6244712;28;20236;-63
2021/12/16 19:07:09;;;;;;;12.33;6.70;;;;;;;;;;6245806;28;20240;-64
2021/12/16 19:10:36;;;;;;;14.60;6.30;;;;;;;;;;6239220;28;20791;-64
2021/12/16 19:13:58;;;;;;;8.97;5.87;;;;;;;;;;6237074;28;20228;-65
2021/12/16 19:17:20;;;;;;;14.03;6.87;;;;;;;;;;6240091;28;20228;-65
2021/12/16 19:20:42;;;;;;;7.83;5.03;;;;;;;;;;6242296;28;20677;-65
2021/12/16 19:24:05;;;;;;;11.90;6.20;;;;;;;;;;6241486;28;20232;-64
2021/12/16 19:27:26;;;;;;;7.07;4.80;;;;;;;;;;6239343;28;20235;-64
2021/12/16 19:30:51;;;;;;;8.10;5.63;;;;;;;;;;6236478;28;20237;-65
2021/12/16 19:34:15;;;;;;;8.97;5.10;;;;;;;;;;6236175;28;20236;-63
2021/12/16 19:37:37;;;;;;;7.57;4.73;;;;;;;;;;6225176;28;20788;-64
2021/12/16 19:41:04;;;;;;;9.20;6.17;;;;;;;;;;6231411;28;20232;-63
2021/12/16 19:44:26;;;;;;;9.40;6.20;;;;;;;;;;6238485;28;20228;-63
2021/12/16 19:47:48;;;;;;;10.37;6.83;;;;;;;;;;6238015;28;20248;-64
2021/12/16 19:51:12;;;;;;;9.90;6.43;;;;;;;;;;6235374;28;20233;-63
2021/12/16 19:54:35;;;;;;;10.90;5.13;;;;;;;;;;6243276;28;20236;-63
2021/12/16 19:58:01;;;;;;;9.10;4.83;;;;;;;;;;6244630;28;20319;-64
2021/12/16 20:01:25;;;;;;;8.23;4.93;;;;;;;;;;6237895;28;20255;-64
2021/12/16 20:04:47;;;;;;;7.83;6.00;;;;;;;;;;6241311;28;20363;-64
2021/12/16 20:08:08;;;;;;;9.83;5.77;;;;;;;;;;6243011;28;20322;-64
2021/12/16 20:11:33;;;;;;;9.33;6.43;;;;;;;;;;6242278;28;20239;-66
2021/12/16 20:14:55;;;;;;;15.90;7.37;;;;;;;;;;6235872;28;20245;-64
2021/12/16 20:18:18;;;;;;;8.83;5.83;;;;;;;;;;6239999;28;20229;-64
2021/12/16 20:21:43;;;;;;;11.30;6.83;;;;;;;;;;6242838;28;20224;-64
2021/12/16 20:25:09;;;;;;;8.90;6.23;;;;;;;;;;6235971;28;20240;-64
2021/12/16 20:28:34;;;;;;;11.43;6.17;;;;;;;;;;6244182;28;20247;-63
2021/12/16 20:31:59;;;;;;;10.40;6.23;;;;;;;;;;6235981;28;20252;-63
2021/12/16 20:35:24;;;;;;;11.20;7.00;;;;;;;;;;6231131;28;20230;-63
2021/12/16 20:38:50;;;;;;;11.23;7.57;;;;;;;;;;6237272;28;20637;-64
2021/12/16 20:42:13;;;;;;;7.17;6.07;;;;;;;;;;6238340;28;20323;-64
2021/12/16 20:45:46;;;;;;;12.47;8.33;;;;;;;;;;6237651;28;20255;-63
2021/12/16 20:49:10;;;;;;;9.67;7.30;;;;;;;;;;6233570;28;20236;-64
2021/12/16 20:52:35;;;;;;;11.57;7.73;;;;;;;;;;6240894;28;20310;-64
2021/12/16 20:55:57;;;;;;;14.03;7.63;;;;;;;;;;6241091;28;20262;-64
2021/12/16 20:59:25;;;;;;;12.23;9.00;;;;;;;;;;6238842;28;20232;-64
2021/12/16 21:02:46;;;;;;;14.70;10.77;;;;;;;;;;6228427;28;20255;-64
2021/12/16 21:06:13;;;;;;;13.70;11.10;;;;;;;;;;6238531;28;20513;-64
2021/12/16 21:09:34;;;;;;;16.60;12.37;;;;;;;;;;6240733;28;20546;-63
2021/12/16 21:12:56;;;;;;;18.83;12.27;;;;;;;;;;6240084;28;20233;-64
2021/12/16 21:16:17;;;;;;;15.73;12.10;;;;;;;;;;6239196;28;20262;-63
2021/12/16 21:19:38;;;;;;;16.03;12.63;;;;;;;;;;6241134;28;20229;-64
2021/12/16 21:22:59;;;;;;;14.70;12.37;;;;;;;;;;6236408;28;20232;-64
2021/12/16 21:26:21;;;;;;;12.47;10.77;;;;;;;;;;6226476;28;20576;-64
2021/12/16 21:29:43;;;;;;;15.60;11.57;;;;;;;;;;6220629;28;20228;-79
2021/12/16 21:33:05;;;;;;;11.23;9.73;;;;;;;;;;6236657;28;20228;-79
2021/12/16 21:36:29;;;;;;;11.47;10.37;;;;;;;;;;6234363;28;20224;-66
2021/12/16 21:39:51;;;;;;;11.43;10.27;;;;;;;;;;6227856;28;20223;-66
2021/12/16 21:43:13;;;;;;;14.63;10.33;;;;;;;;;;6234030;28;20254;-64
2021/12/16 21:46:37;;;;;;;12.97;10.73;;;;;;;;;;6228971;28;20798;-64
2021/12/16 21:49:58;;;;;;;11.63;10.47;;;;;;;;;;6233141;28;20240;-65
2021/12/16 21:53:22;;;;;;;11.77;10.47;;;;;;;;;;6227053;28;20229;-64
2021/12/16 21:56:43;;;;;;;14.77;10.50;;;;;;;;;;6210330;28;20673;-64
2021/12/16 22:00:06;;;;;;;16.30;10.17;;;;;;;;;;6222477;28;20543;-64
2021/12/16 22:03:31;;;;;;;11.57;9.30;;;;;;;;;;6227409;28;20577;-63
2021/12/16 22:06:52;;;;;;;12.63;8.37;;;;;;;;;;6227173;28;20229;-65
2021/12/16 22:10:14;;;;;;;10.83;7.67;;;;;;;;;;6218301;28;20228;-64
2021/12/16 22:13:35;;;;;;;9.80;7.60;;;;;;;;;;6219500;28;20256;-64
2021/12/16 22:16:56;;;;;;;8.27;7.40;;;;;;;;;;6222391;28;20244;-63
2021/12/16 22:20:23;;;;;;;7.13;6.43;;;;;;;;;;6217678;28;20236;-63
2021/12/16 22:23:45;;;;;;;8.43;7.30;;;;;;;;;;6197607;28;20228;-64
2021/12/16 22:27:07;;;;;;;10.30;7.77;;;;;;;;;;6192613;28;20236;-64
2021/12/16 22:30:28;;;;;;;11.57;8.43;;;;;;;;;;6222658;28;20334;-65
2021/12/16 22:33:49;;;;;;;10.63;8.00;;;;;;;;;;6213544;28;20621;-64
2021/12/16 22:37:14;;;;;;;12.33;9.13;;;;;;;;;;6215994;28;20232;-64
2021/12/16 22:40:37;;;;;;;27.53;9.97;;;;;;;;;;6226723;28;20311;-64
2021/12/16 22:43:58;;;;;;;13.30;8.43;;;;;;;;;;6222657;28;20614;-63
2021/12/16 22:47:19;;;;;;;11.37;7.63;;;;;;;;;;6225501;28;20228;-64
2021/12/16 22:50:40;;;;;;;12.88;8.60;;;;;;;;;;6227508;28;20780;-64
2021/12/16 22:54:03;;;;;;;10.77;7.67;;;;;;;;;;6234367;28;20252;-63
2021/12/16 22:57:25;;;;;;;7.93;6.97;;;;;;;;;;6232230;28;20598;-65